Etusivu
METAR-TAF:

METAR-TAF

Lentoasemat :

Moorhead Municipal Airport

Moorhead, Minnesota, Yhdysvallat

Leveyspiiri: 46-50-21N, Pituuspiiri: 096-39-47W, korkeus merenpinnasta: 280 m

Tämänhetkinen sää

Tämä raportti tehtiin 18 minuuttia sitten, kello 10.15 UTC
Tuuli 15 kn pohjoisen/luoteesta
Lämpötila 2°C
Kosteus 64%
Ilmanpaine 1014 hPa
Näkyvyys: 16.1 km
Hajanaisia pilviä 2500 ft:n korkeudessa
Pilvistä 4000 ft:n korkeudessa

METAR: KJKJ 171015Z AUTO 33015KT 10SM SCT025 OVC040 02/M04 A2994 RMK AO2

Aika: 04:33 (10:33 UTC)


TAF: puuttuu

Säähavainnot ja -ennusteet yli 4000 lentoasemalta (METAR- ja TAF-raportit).

Käytössä olevat sääasemat on merkitty karttaan keltaisilla ja punaisilla pisteillä.

Aseta hiiri pisteen päälle nähdäksesi sääaseman nimen.

Klikkaa sitten nähdäksesi säähavainnot ja -ennusteet.

Kartan vaihtaminen: klikkaa mustalla rastilla varustettuja vihreitä pisteitä, niin voit zoomata sisään; viivalla varustettua vihreää pistettä, niin voit zoomata ulos tai vihreitä nuolia, niin pääset viereisille kartoille.


METAR-TAF: